sensor_id;sensor_type;location;lat;lon;timestamp;pressure;altitude;pressure_sealevel;temperature;humidity
41830;BME280;38614;43.472;23.936;2022-12-18T00:00:47;101222.56;;;5.27;100.00
41830;BME280;38614;43.472;23.936;2022-12-18T00:03:35;101233.78;;;5.12;100.00
41830;BME280;38614;43.472;23.936;2022-12-18T00:06:25;101206.59;;;5.15;100.00
41830;BME280;38614;43.472;23.936;2022-12-18T00:09:14;101229.22;;;5.02;100.00
41830;BME280;38614;43.472;23.936;2022-12-18T00:12:02;101240.94;;;5.27;100.00
41830;BME280;38614;43.472;23.936;2022-12-18T00:15:01;101245.41;;;5.23;100.00
41830;BME280;38614;43.472;23.936;2022-12-18T00:17:49;101253.78;;;5.31;100.00
41830;BME280;38614;43.472;23.936;2022-12-18T00:20:38;101250.66;;;5.19;100.00
41830;BME280;38614;43.472;23.936;2022-12-18T00:23:26;101265.31;;;5.28;100.00
41830;BME280;38614;43.472;23.936;2022-12-18T00:26:17;101269.47;;;5.26;100.00
41830;BME280;38614;43.472;23.936;2022-12-18T00:29:11;101248.13;;;5.04;100.00
41830;BME280;38614;43.472;23.936;2022-12-18T00:32:02;101254.44;;;5.23;100.00
41830;BME280;38614;43.472;23.936;2022-12-18T00:34:50;101276.13;;;5.20;100.00
41830;BME280;38614;43.472;23.936;2022-12-18T00:37:38;101272.16;;;5.12;100.00
41830;BME280;38614;43.472;23.936;2022-12-18T00:40:25;101270.28;;;5.07;100.00
41830;BME280;38614;43.472;23.936;2022-12-18T00:43:13;101290.13;;;5.18;100.00
41830;BME280;38614;43.472;23.936;2022-12-18T00:46:01;101290.06;;;5.04;100.00
41830;BME280;38614;43.472;23.936;2022-12-18T00:48:49;101284.47;;;5.09;100.00
41830;BME280;38614;43.472;23.936;2022-12-18T00:51:36;101293.47;;;5.15;100.00
41830;BME280;38614;43.472;23.936;2022-12-18T00:54:24;101294.41;;;5.05;100.00
41830;BME280;38614;43.472;23.936;2022-12-18T00:57:12;101283.28;;;4.97;100.00
41830;BME280;38614;43.472;23.936;2022-12-18T01:00:00;101291.50;;;4.97;100.00
41830;BME280;38614;43.472;23.936;2022-12-18T01:02:48;101295.53;;;4.80;100.00
41830;BME280;38614;43.472;23.936;2022-12-18T01:05:39;101297.25;;;4.76;100.00
41830;BME280;38614;43.472;23.936;2022-12-18T01:08:27;101293.69;;;4.76;100.00
41830;BME280;38614;43.472;23.936;2022-12-18T01:11:19;101283.69;;;4.66;100.00
41830;BME280;38614;43.472;23.936;2022-12-18T01:14:07;101312.91;;;4.71;100.00
41830;BME280;38614;43.472;23.936;2022-12-18T01:16:57;101316.13;;;4.78;100.00
41830;BME280;38614;43.472;23.936;2022-12-18T01:19:44;101319.88;;;4.82;100.00
41830;BME280;38614;43.472;23.936;2022-12-18T01:22:33;101300.16;;;4.61;100.00
41830;BME280;38614;43.472;23.936;2022-12-18T01:25:22;101324.44;;;4.92;100.00
41830;BME280;38614;43.472;23.936;2022-12-18T01:28:10;101324.25;;;4.83;100.00
41830;BME280;38614;43.472;23.936;2022-12-18T01:34:04;101325.00;;;4.65;100.00
41830;BME280;38614;43.472;23.936;2022-12-18T01:36:54;101338.25;;;4.57;100.00
41830;BME280;38614;43.472;23.936;2022-12-18T01:39:42;101334.41;;;4.58;100.00
41830;BME280;38614;43.472;23.936;2022-12-18T01:42:33;101340.41;;;4.61;100.00
41830;BME280;38614;43.472;23.936;2022-12-18T01:45:32;101336.50;;;4.67;100.00
41830;BME280;38614;43.472;23.936;2022-12-18T01:48:20;101330.84;;;4.58;100.00
41830;BME280;38614;43.472;23.936;2022-12-18T01:51:09;101328.41;;;4.56;100.00
41830;BME280;38614;43.472;23.936;2022-12-18T01:53:59;101335.38;;;4.44;100.00
41830;BME280;38614;43.472;23.936;2022-12-18T01:56:46;101340.31;;;4.42;100.00
41830;BME280;38614;43.472;23.936;2022-12-18T01:59:35;101349.63;;;4.41;100.00
41830;BME280;38614;43.472;23.936;2022-12-18T02:02:26;101351.50;;;4.45;100.00
41830;BME280;38614;43.472;23.936;2022-12-18T02:08:25;101357.03;;;4.40;100.00
41830;BME280;38614;43.472;23.936;2022-12-18T02:20:45;101361.81;;;4.24;100.00
41830;BME280;38614;43.472;23.936;2022-12-18T02:26:41;101361.91;;;4.14;100.00
41830;BME280;38614;43.472;23.936;2022-12-18T02:29:38;101357.94;;;3.96;100.00
41830;BME280;38614;43.472;23.936;2022-12-18T02:32:31;101362.38;;;3.92;100.00
41830;BME280;38614;43.472;23.936;2022-12-18T02:35:26;101366.50;;;3.85;100.00
41830;BME280;38614;43.472;23.936;2022-12-18T02:38:18;101358.13;;;3.71;100.00
41830;BME280;38614;43.472;23.936;2022-12-18T02:41:08;101361.00;;;3.90;100.00
41830;BME280;38614;43.472;23.936;2022-12-18T02:44:00;101365.91;;;3.93;100.00
41830;BME280;38614;43.472;23.936;2022-12-18T02:46:52;101372.72;;;3.95;100.00
41830;BME280;38614;43.472;23.936;2022-12-18T02:56:18;101368.38;;;3.89;100.00
41830;BME280;38614;43.472;23.936;2022-12-18T02:59:13;101379.50;;;4.03;100.00
41830;BME280;38614;43.472;23.936;2022-12-18T03:02:36;101372.56;;;3.82;100.00
41830;BME280;38614;43.472;23.936;2022-12-18T03:05:31;101388.81;;;4.02;100.00
41830;BME280;38614;43.472;23.936;2022-12-18T03:08:25;101359.41;;;3.84;100.00
41830;BME280;38614;43.472;23.936;2022-12-18T03:11:17;101368.16;;;3.86;100.00
41830;BME280;38614;43.472;23.936;2022-12-18T03:14:29;101404.50;;;3.91;100.00
41830;BME280;38614;43.472;23.936;2022-12-18T03:17:20;101400.38;;;3.89;100.00
41830;BME280;38614;43.472;23.936;2022-12-18T03:23:25;101413.50;;;3.92;100.00
41830;BME280;38614;43.472;23.936;2022-12-18T03:26:16;101419.25;;;3.90;100.00
41830;BME280;38614;43.472;23.936;2022-12-18T03:29:13;101406.44;;;3.81;100.00
41830;BME280;38614;43.472;23.936;2022-12-18T03:32:14;101398.81;;;3.83;100.00
41830;BME280;38614;43.472;23.936;2022-12-18T03:35:05;101406.72;;;3.84;100.00
41830;BME280;38614;43.472;23.936;2022-12-18T03:37:57;101410.06;;;3.71;100.00
41830;BME280;38614;43.472;23.936;2022-12-18T03:41:11;101417.66;;;3.79;100.00
41830;BME280;38614;43.472;23.936;2022-12-18T03:44:39;101409.81;;;3.72;100.00
41830;BME280;38614;43.472;23.936;2022-12-18T03:50:59;101419.72;;;3.58;100.00
41830;BME280;38614;43.472;23.936;2022-12-18T03:54:15;101414.00;;;3.55;100.00
41830;BME280;38614;43.472;23.936;2022-12-18T03:57:20;101419.19;;;3.56;100.00
41830;BME280;38614;43.472;23.936;2022-12-18T04:00:14;101420.56;;;3.49;100.00
41830;BME280;38614;43.472;23.936;2022-12-18T04:03:23;101401.19;;;3.45;100.00
41830;BME280;38614;43.472;23.936;2022-12-18T04:06:26;101420.81;;;3.57;100.00
41830;BME280;38614;43.472;23.936;2022-12-18T04:09:16;101435.53;;;3.61;100.00
41830;BME280;38614;43.472;23.936;2022-12-18T04:12:06;101419.75;;;3.48;100.00
41830;BME280;38614;43.472;23.936;2022-12-18T04:14:54;101433.59;;;3.67;100.00
41830;BME280;38614;43.472;23.936;2022-12-18T04:17:48;101443.16;;;3.69;100.00
41830;BME280;38614;43.472;23.936;2022-12-18T04:20:39;101430.69;;;3.48;100.00
41830;BME280;38614;43.472;23.936;2022-12-18T04:23:27;101423.31;;;3.43;100.00
41830;BME280;38614;43.472;23.936;2022-12-18T04:26:18;101444.53;;;3.67;100.00
41830;BME280;38614;43.472;23.936;2022-12-18T04:29:34;101457.94;;;3.68;100.00
41830;BME280;38614;43.472;23.936;2022-12-18T04:32:25;101447.63;;;3.55;100.00
41830;BME280;38614;43.472;23.936;2022-12-18T04:35:19;101451.69;;;3.53;100.00
41830;BME280;38614;43.472;23.936;2022-12-18T04:38:07;101462.34;;;3.64;100.00
41830;BME280;38614;43.472;23.936;2022-12-18T04:40:59;101468.34;;;3.61;100.00
41830;BME280;38614;43.472;23.936;2022-12-18T04:43:47;101476.81;;;3.65;100.00
41830;BME280;38614;43.472;23.936;2022-12-18T04:46:35;101475.66;;;3.71;100.00
41830;BME280;38614;43.472;23.936;2022-12-18T04:49:25;101473.81;;;3.61;100.00
41830;BME280;38614;43.472;23.936;2022-12-18T04:52:13;101457.44;;;3.51;100.00
41830;BME280;38614;43.472;23.936;2022-12-18T04:55:03;101494.59;;;3.57;100.00
41830;BME280;38614;43.472;23.936;2022-12-18T04:57:51;101484.44;;;3.63;100.00
41830;BME280;38614;43.472;23.936;2022-12-18T05:00:39;101490.16;;;3.71;100.00
41830;BME280;38614;43.472;23.936;2022-12-18T05:03:26;101498.34;;;3.82;100.00
41830;BME280;38614;43.472;23.936;2022-12-18T05:06:14;101503.25;;;3.85;100.00
41830;BME280;38614;43.472;23.936;2022-12-18T05:09:02;101489.16;;;3.57;100.00
41830;BME280;38614;43.472;23.936;2022-12-18T05:11:50;101502.47;;;3.74;100.00
41830;BME280;38614;43.472;23.936;2022-12-18T05:14:40;101513.94;;;3.76;100.00
41830;BME280;38614;43.472;23.936;2022-12-18T05:17:28;101532.84;;;3.72;100.00
41830;BME280;38614;43.472;23.936;2022-12-18T05:20:16;101532.06;;;3.57;100.00
41830;BME280;38614;43.472;23.936;2022-12-18T05:23:06;101543.25;;;3.60;100.00
41830;BME280;38614;43.472;23.936;2022-12-18T05:25:56;101558.28;;;3.58;100.00
41830;BME280;38614;43.472;23.936;2022-12-18T05:28:45;101553.09;;;3.56;100.00
41830;BME280;38614;43.472;23.936;2022-12-18T05:31:33;101533.19;;;3.40;100.00
41830;BME280;38614;43.472;23.936;2022-12-18T05:34:26;101564.06;;;3.41;100.00
41830;BME280;38614;43.472;23.936;2022-12-18T05:37:13;101562.41;;;3.50;100.00
41830;BME280;38614;43.472;23.936;2022-12-18T05:40:02;101565.13;;;3.50;100.00
41830;BME280;38614;43.472;23.936;2022-12-18T05:42:34;101561.63;;;3.45;100.00
41830;BME280;38614;43.472;23.936;2022-12-18T05:45:21;101568.16;;;3.54;100.00
41830;BME280;38614;43.472;23.936;2022-12-18T05:48:16;101570.88;;;3.49;100.00
41830;BME280;38614;43.472;23.936;2022-12-18T05:51:08;101573.88;;;3.57;100.00
41830;BME280;38614;43.472;23.936;2022-12-18T05:53:56;101576.34;;;3.49;100.00
41830;BME280;38614;43.472;23.936;2022-12-18T05:56:47;101575.78;;;3.52;100.00
41830;BME280;38614;43.472;23.936;2022-12-18T05:59:37;101587.25;;;3.64;100.00
41830;BME280;38614;43.472;23.936;2022-12-18T06:02:25;101587.81;;;3.56;100.00
41830;BME280;38614;43.472;23.936;2022-12-18T06:05:13;101593.25;;;3.66;100.00
41830;BME280;38614;43.472;23.936;2022-12-18T06:08:01;101582.06;;;3.57;100.00
41830;BME280;38614;43.472;23.936;2022-12-18T06:10:52;101593.53;;;3.59;100.00
41830;BME280;38614;43.472;23.936;2022-12-18T06:13:45;101602.56;;;3.60;100.00
41830;BME280;38614;43.472;23.936;2022-12-18T06:16:34;101606.16;;;3.45;100.00
41830;BME280;38614;43.472;23.936;2022-12-18T06:19:21;101622.81;;;3.49;100.00
41830;BME280;38614;43.472;23.936;2022-12-18T06:22:12;101623.63;;;3.59;100.00
41830;BME280;38614;43.472;23.936;2022-12-18T06:25:00;101630.69;;;3.70;100.00
41830;BME280;38614;43.472;23.936;2022-12-18T06:27:47;101635.88;;;3.82;100.00
41830;BME280;38614;43.472;23.936;2022-12-18T06:30:35;101640.28;;;3.73;100.00
41830;BME280;38614;43.472;23.936;2022-12-18T06:33:26;101618.72;;;3.56;100.00
41830;BME280;38614;43.472;23.936;2022-12-18T06:36:14;101632.88;;;3.79;100.00
41830;BME280;38614;43.472;23.936;2022-12-18T06:39:02;101636.16;;;3.76;100.00
41830;BME280;38614;43.472;23.936;2022-12-18T06:41:50;101642.44;;;3.71;100.00
41830;BME280;38614;43.472;23.936;2022-12-18T06:44:38;101651.47;;;3.82;100.00
41830;BME280;38614;43.472;23.936;2022-12-18T06:47:27;101652.28;;;3.82;100.00
41830;BME280;38614;43.472;23.936;2022-12-18T06:50:14;101657.72;;;3.92;100.00
41830;BME280;38614;43.472;23.936;2022-12-18T06:53:04;101620.66;;;3.46;100.00
41830;BME280;38614;43.472;23.936;2022-12-18T06:56:03;101648.78;;;3.56;100.00
41830;BME280;38614;43.472;23.936;2022-12-18T06:58:57;101668.16;;;3.60;100.00
41830;BME280;38614;43.472;23.936;2022-12-18T07:01:56;101651.25;;;3.48;100.00
41830;BME280;38614;43.472;23.936;2022-12-18T07:04:45;101657.50;;;3.43;100.00
41830;BME280;38614;43.472;23.936;2022-12-18T07:07:38;101673.66;;;3.55;100.00
41830;BME280;38614;43.472;23.936;2022-12-18T07:10:28;101685.94;;;3.57;100.00
41830;BME280;38614;43.472;23.936;2022-12-18T07:13:19;101690.03;;;3.50;100.00
41830;BME280;38614;43.472;23.936;2022-12-18T07:16:12;101673.91;;;3.43;100.00
41830;BME280;38614;43.472;23.936;2022-12-18T07:19:12;101675.56;;;3.39;100.00
41830;BME280;38614;43.472;23.936;2022-12-18T07:26:11;101681.59;;;3.46;100.00
41830;BME280;38614;43.472;23.936;2022-12-18T07:28:59;101680.75;;;3.51;100.00
41830;BME280;38614;43.472;23.936;2022-12-18T07:31:47;101667.34;;;3.44;100.00
41830;BME280;38614;43.472;23.936;2022-12-18T07:34:34;101681.00;;;3.69;100.00
41830;BME280;38614;43.472;23.936;2022-12-18T07:37:25;101665.47;;;3.55;100.00
41830;BME280;38614;43.472;23.936;2022-12-18T07:40:13;101681.03;;;3.64;100.00
41830;BME280;38614;43.472;23.936;2022-12-18T07:43:01;101690.84;;;3.76;100.00
41830;BME280;38614;43.472;23.936;2022-12-18T07:45:49;101694.63;;;3.90;100.00
41830;BME280;38614;43.472;23.936;2022-12-18T07:48:38;101686.69;;;3.98;100.00
41830;BME280;38614;43.472;23.936;2022-12-18T07:51:25;101706.63;;;4.14;100.00
41830;BME280;38614;43.472;23.936;2022-12-18T07:54:13;101714.53;;;4.21;100.00
41830;BME280;38614;43.472;23.936;2022-12-18T07:57:01;101694.00;;;4.28;100.00
41830;BME280;38614;43.472;23.936;2022-12-18T07:59:48;101707.38;;;4.40;100.00
41830;BME280;38614;43.472;23.936;2022-12-18T08:02:36;101688.75;;;4.37;100.00
41830;BME280;38614;43.472;23.936;2022-12-18T08:05:26;101714.66;;;4.60;100.00
41830;BME280;38614;43.472;23.936;2022-12-18T08:08:14;101678.88;;;4.41;100.00
41830;BME280;38614;43.472;23.936;2022-12-18T08:11:01;101711.59;;;4.72;100.00
41830;BME280;38614;43.472;23.936;2022-12-18T08:13:50;101710.19;;;4.84;100.00
41830;BME280;38614;43.472;23.936;2022-12-18T08:16:38;101718.69;;;4.78;100.00
41830;BME280;38614;43.472;23.936;2022-12-18T08:19:25;101718.97;;;4.76;100.00
41830;BME280;38614;43.472;23.936;2022-12-18T08:22:16;101712.63;;;4.86;100.00
41830;BME280;38614;43.472;23.936;2022-12-18T08:25:04;101727.31;;;5.05;100.00
41830;BME280;38614;43.472;23.936;2022-12-18T08:27:52;101722.06;;;5.09;100.00
41830;BME280;38614;43.472;23.936;2022-12-18T08:30:41;101729.91;;;5.26;100.00
41830;BME280;38614;43.472;23.936;2022-12-18T08:33:29;101739.81;;;5.22;100.00
41830;BME280;38614;43.472;23.936;2022-12-18T08:36:18;101725.69;;;5.38;100.00
41830;BME280;38614;43.472;23.936;2022-12-18T08:39:07;101703.06;;;5.23;100.00
41830;BME280;38614;43.472;23.936;2022-12-18T08:41:58;101725.69;;;5.38;100.00
41830;BME280;38614;43.472;23.936;2022-12-18T08:45:04;101722.34;;;5.47;100.00
41830;BME280;38614;43.472;23.936;2022-12-18T08:47:54;101736.41;;;5.40;100.00
41830;BME280;38614;43.472;23.936;2022-12-18T08:50:42;101728.03;;;5.55;100.00
41830;BME280;38614;43.472;23.936;2022-12-18T08:53:30;101725.69;;;5.38;100.00
41830;BME280;38614;43.472;23.936;2022-12-18T08:56:21;101739.91;;;5.46;100.00
41830;BME280;38614;43.472;23.936;2022-12-18T08:59:09;101723.63;;;5.59;100.00
41830;BME280;38614;43.472;23.936;2022-12-18T09:02:05;101738.19;;;5.55;100.00
41830;BME280;38614;43.472;23.936;2022-12-18T09:04:53;101738.06;;;5.70;100.00
41830;BME280;38614;43.472;23.936;2022-12-18T09:07:43;101734.06;;;5.91;100.00
41830;BME280;38614;43.472;23.936;2022-12-18T09:10:32;101715.97;;;5.90;100.00
41830;BME280;38614;43.472;23.936;2022-12-18T09:13:27;101736.88;;;6.10;100.00
41830;BME280;38614;43.472;23.936;2022-12-18T09:16:15;101734.22;;;6.05;100.00
41830;BME280;38614;43.472;23.936;2022-12-18T09:19:05;101733.84;;;6.12;100.00
41830;BME280;38614;43.472;23.936;2022-12-18T09:21:53;101717.31;;;5.93;100.00
41830;BME280;38614;43.472;23.936;2022-12-18T09:24:43;101748.88;;;6.19;100.00
41830;BME280;38614;43.472;23.936;2022-12-18T09:27:34;101752.00;;;6.08;100.00
41830;BME280;38614;43.472;23.936;2022-12-18T09:30:22;101762.53;;;5.95;100.00
41830;BME280;38614;43.472;23.936;2022-12-18T09:33:10;101731.16;;;5.78;100.00
41830;BME280;38614;43.472;23.936;2022-12-18T09:36:02;101749.75;;;5.81;100.00
41830;BME280;38614;43.472;23.936;2022-12-18T09:38:51;101758.72;;;5.57;100.00
41830;BME280;38614;43.472;23.936;2022-12-18T09:41:51;101761.25;;;5.49;100.00
41830;BME280;38614;43.472;23.936;2022-12-18T09:44:45;101747.06;;;5.41;100.00
41830;BME280;38614;43.472;23.936;2022-12-18T09:47:38;101764.28;;;5.47;100.00
41830;BME280;38614;43.472;23.936;2022-12-18T09:50:36;101764.56;;;5.51;100.00
41830;BME280;38614;43.472;23.936;2022-12-18T09:53:27;101758.38;;;5.69;100.00
41830;BME280;38614;43.472;23.936;2022-12-18T09:56:19;101748.38;;;5.83;100.00
41830;BME280;38614;43.472;23.936;2022-12-18T09:59:20;101752.75;;;6.13;100.00
41830;BME280;38614;43.472;23.936;2022-12-18T10:02:20;101754.75;;;6.08;100.00
41830;BME280;38614;43.472;23.936;2022-12-18T10:05:15;101763.41;;;5.91;100.00
41830;BME280;38614;43.472;23.936;2022-12-18T10:17:54;101760.44;;;6.64;100.00
41830;BME280;38614;43.472;23.936;2022-12-18T10:21:05;101770.50;;;6.50;100.00
41830;BME280;38614;43.472;23.936;2022-12-18T10:27:12;101771.53;;;6.30;100.00
41830;BME280;38614;43.472;23.936;2022-12-18T10:30:12;101769.34;;;6.56;100.00
41830;BME280;38614;43.472;23.936;2022-12-18T10:33:02;101778.78;;;6.69;100.00
41830;BME280;38614;43.472;23.936;2022-12-18T10:35:54;101777.03;;;6.78;100.00
41830;BME280;38614;43.472;23.936;2022-12-18T10:38:42;101775.91;;;6.79;100.00
41830;BME280;38614;43.472;23.936;2022-12-18T10:41:30;101772.78;;;6.67;100.00
41830;BME280;38614;43.472;23.936;2022-12-18T10:44:21;101767.19;;;6.96;100.00
41830;BME280;38614;43.472;23.936;2022-12-18T10:47:18;101753.13;;;6.78;100.00
41830;BME280;38614;43.472;23.936;2022-12-18T10:50:19;101772.09;;;6.80;100.00
41830;BME280;38614;43.472;23.936;2022-12-18T10:53:18;101763.50;;;6.63;100.00
41830;BME280;38614;43.472;23.936;2022-12-18T10:56:07;101766.00;;;6.59;100.00
41830;BME280;38614;43.472;23.936;2022-12-18T10:59:15;101770.84;;;6.67;100.00
41830;BME280;38614;43.472;23.936;2022-12-18T11:02:37;101757.75;;;6.59;100.00
41830;BME280;38614;43.472;23.936;2022-12-18T11:05:30;101774.41;;;6.68;100.00
41830;BME280;38614;43.472;23.936;2022-12-18T11:08:20;101770.56;;;7.11;100.00
41830;BME280;38614;43.472;23.936;2022-12-18T11:11:22;101769.66;;;7.16;100.00
41830;BME280;38614;43.472;23.936;2022-12-18T11:14:18;101757.41;;;7.08;100.00
41830;BME280;38614;43.472;23.936;2022-12-18T11:20:34;101763.03;;;6.79;100.00
41830;BME280;38614;43.472;23.936;2022-12-18T11:23:26;101758.56;;;6.60;100.00
41830;BME280;38614;43.472;23.936;2022-12-18T11:26:14;101768.25;;;6.76;100.00
41830;BME280;38614;43.472;23.936;2022-12-18T11:29:10;101768.94;;;6.86;100.00
41830;BME280;38614;43.472;23.936;2022-12-18T11:32:27;101769.84;;;6.82;100.00
41830;BME280;38614;43.472;23.936;2022-12-18T11:35:40;101763.84;;;6.80;100.00
41830;BME280;38614;43.472;23.936;2022-12-18T11:38:37;101775.19;;;6.73;100.00
41830;BME280;38614;43.472;23.936;2022-12-18T11:41:42;101780.72;;;6.92;100.00
41830;BME280;38614;43.472;23.936;2022-12-18T11:44:58;101790.59;;;7.12;100.00
41830;BME280;38614;43.472;23.936;2022-12-18T11:48:06;101803.03;;;7.09;100.00
41830;BME280;38614;43.472;23.936;2022-12-18T11:51:02;101796.59;;;6.95;100.00
41830;BME280;38614;43.472;23.936;2022-12-18T11:53:51;101795.16;;;6.79;100.00
41830;BME280;38614;43.472;23.936;2022-12-18T11:56:46;101791.66;;;6.73;100.00
41830;BME280;38614;43.472;23.936;2022-12-18T12:06:20;101798.88;;;6.40;100.00
41830;BME280;38614;43.472;23.936;2022-12-18T12:09:27;101791.06;;;6.28;100.00
41830;BME280;38614;43.472;23.936;2022-12-18T12:13:04;101790.28;;;6.52;100.00
41830;BME280;38614;43.472;23.936;2022-12-18T12:22:23;101802.69;;;6.44;100.00
41830;BME280;38614;43.472;23.936;2022-12-18T12:35:27;101798.50;;;6.23;100.00
41830;BME280;38614;43.472;23.936;2022-12-18T12:38:41;101796.84;;;6.27;100.00
41830;BME280;38614;43.472;23.936;2022-12-18T12:41:31;101800.31;;;6.09;100.00
41830;BME280;38614;43.472;23.936;2022-12-18T12:44:43;101809.69;;;6.03;100.00
41830;BME280;38614;43.472;23.936;2022-12-18T12:47:38;101795.25;;;5.92;100.00
41830;BME280;38614;43.472;23.936;2022-12-18T12:50:34;101805.94;;;5.88;100.00
41830;BME280;38614;43.472;23.936;2022-12-18T12:53:32;101805.22;;;5.78;100.00
41830;BME280;38614;43.472;23.936;2022-12-18T12:56:25;101819.47;;;5.80;100.00
41830;BME280;38614;43.472;23.936;2022-12-18T12:59:37;101827.47;;;5.71;100.00
41830;BME280;38614;43.472;23.936;2022-12-18T13:02:51;101825.09;;;5.59;100.00
41830;BME280;38614;43.472;23.936;2022-12-18T13:05:53;101829.25;;;5.52;100.00
41830;BME280;38614;43.472;23.936;2022-12-18T13:08:56;101818.66;;;5.40;100.00
41830;BME280;38614;43.472;23.936;2022-12-18T13:11:48;101834.75;;;5.47;100.00
41830;BME280;38614;43.472;23.936;2022-12-18T13:15:13;101835.09;;;5.35;100.00
41830;BME280;38614;43.472;23.936;2022-12-18T13:24:15;101841.72;;;5.29;100.00
41830;BME280;38614;43.472;23.936;2022-12-18T13:27:45;101846.59;;;5.37;100.00
41830;BME280;38614;43.472;23.936;2022-12-18T13:30:51;101844.13;;;5.40;100.00
41830;BME280;38614;43.472;23.936;2022-12-18T13:33:44;101826.41;;;5.23;100.00
41830;BME280;38614;43.472;23.936;2022-12-18T13:36:54;101849.38;;;5.32;100.00
41830;BME280;38614;43.472;23.936;2022-12-18T13:39:42;101850.78;;;5.24;100.00
41830;BME280;38614;43.472;23.936;2022-12-18T13:42:49;101851.38;;;5.16;100.00
41830;BME280;38614;43.472;23.936;2022-12-18T13:45:59;101851.91;;;5.18;100.00
41830;BME280;38614;43.472;23.936;2022-12-18T13:51:54;101856.31;;;5.14;100.00
41830;BME280;38614;43.472;23.936;2022-12-18T13:55:14;101868.97;;;5.00;100.00
41830;BME280;38614;43.472;23.936;2022-12-18T13:58:05;101866.81;;;4.92;100.00
41830;BME280;38614;43.472;23.936;2022-12-18T14:00:53;101855.63;;;4.73;100.00
41830;BME280;38614;43.472;23.936;2022-12-18T14:03:41;101868.22;;;4.84;100.00
41830;BME280;38614;43.472;23.936;2022-12-18T14:06:29;101863.66;;;4.49;100.00
41830;BME280;38614;43.472;23.936;2022-12-18T14:09:25;101856.50;;;4.53;100.00
41830;BME280;38614;43.472;23.936;2022-12-18T14:12:20;101865.59;;;4.38;100.00
41830;BME280;38614;43.472;23.936;2022-12-18T14:15:33;101864.75;;;4.33;100.00
41830;BME280;38614;43.472;23.936;2022-12-18T14:18:45;101868.06;;;4.29;100.00
41830;BME280;38614;43.472;23.936;2022-12-18T14:21:34;101870.53;;;4.11;100.00
41830;BME280;38614;43.472;23.936;2022-12-18T14:24:22;101882.53;;;3.99;100.00
41830;BME280;38614;43.472;23.936;2022-12-18T14:33:16;101881.38;;;3.60;100.00
41830;BME280;38614;43.472;23.936;2022-12-18T14:36:14;101868.53;;;3.55;100.00
41830;BME280;38614;43.472;23.936;2022-12-18T14:39:03;101897.22;;;3.48;100.00
41830;BME280;38614;43.472;23.936;2022-12-18T14:41:51;101885.97;;;3.39;100.00
41830;BME280;38614;43.472;23.936;2022-12-18T14:44:39;101905.94;;;3.39;100.00
41830;BME280;38614;43.472;23.936;2022-12-18T14:47:47;101922.53;;;3.23;100.00
41830;BME280;38614;43.472;23.936;2022-12-18T14:50:35;101923.28;;;3.08;100.00
41830;BME280;38614;43.472;23.936;2022-12-18T14:53:32;101916.75;;;3.14;100.00
41830;BME280;38614;43.472;23.936;2022-12-18T14:56:22;101919.75;;;3.07;100.00
41830;BME280;38614;43.472;23.936;2022-12-18T14:59:15;101931.94;;;2.90;100.00
41830;BME280;38614;43.472;23.936;2022-12-18T15:08:00;101912.94;;;2.68;100.00
41830;BME280;38614;43.472;23.936;2022-12-18T15:10:49;101924.34;;;2.60;100.00
41830;BME280;38614;43.472;23.936;2022-12-18T15:13:38;101941.25;;;2.51;100.00
41830;BME280;38614;43.472;23.936;2022-12-18T15:16:26;101936.88;;;2.55;100.00
41830;BME280;38614;43.472;23.936;2022-12-18T15:19:17;101947.47;;;2.47;100.00
41830;BME280;38614;43.472;23.936;2022-12-18T15:22:25;101957.25;;;2.43;100.00
41830;BME280;38614;43.472;23.936;2022-12-18T15:25:32;101965.34;;;2.33;100.00
41830;BME280;38614;43.472;23.936;2022-12-18T15:28:55;101968.06;;;2.33;100.00
41830;BME280;38614;43.472;23.936;2022-12-18T15:34:47;101985.22;;;2.01;100.00
41830;BME280;38614;43.472;23.936;2022-12-18T15:37:35;101992.56;;;1.95;100.00
41830;BME280;38614;43.472;23.936;2022-12-18T15:40:23;102000.41;;;1.92;100.00
41830;BME280;38614;43.472;23.936;2022-12-18T15:43:11;102002.31;;;1.91;100.00
41830;BME280;38614;43.472;23.936;2022-12-18T15:46:21;102009.97;;;1.94;100.00
41830;BME280;38614;43.472;23.936;2022-12-18T15:49:09;102002.38;;;1.75;100.00
41830;BME280;38614;43.472;23.936;2022-12-18T15:51:59;101977.88;;;1.53;100.00
41830;BME280;38614;43.472;23.936;2022-12-18T15:54:47;102016.53;;;1.71;100.00
41830;BME280;38614;43.472;23.936;2022-12-18T15:57:53;102024.69;;;1.71;100.00
41830;BME280;38614;43.472;23.936;2022-12-18T16:00:41;102024.75;;;1.55;100.00
41830;BME280;38614;43.472;23.936;2022-12-18T16:03:29;102037.31;;;1.56;100.00
41830;BME280;38614;43.472;23.936;2022-12-18T16:06:17;102014.94;;;1.54;100.00
41830;BME280;38614;43.472;23.936;2022-12-18T16:09:04;102038.50;;;1.65;100.00
41830;BME280;38614;43.472;23.936;2022-12-18T16:11:52;102045.31;;;1.62;100.00
41830;BME280;38614;43.472;23.936;2022-12-18T16:14:43;102054.78;;;1.38;100.00
41830;BME280;38614;43.472;23.936;2022-12-18T16:17:32;102059.50;;;1.26;100.00
41830;BME280;38614;43.472;23.936;2022-12-18T16:20:21;102075.84;;;1.26;100.00
41830;BME280;38614;43.472;23.936;2022-12-18T16:23:09;102081.41;;;1.14;100.00
41830;BME280;38614;43.472;23.936;2022-12-18T16:25:57;102061.19;;;0.93;100.00
41830;BME280;38614;43.472;23.936;2022-12-18T16:28:54;102095.25;;;1.12;100.00
41830;BME280;38614;43.472;23.936;2022-12-18T16:31:42;102100.47;;;1.14;100.00
41830;BME280;38614;43.472;23.936;2022-12-18T16:34:34;102097.47;;;0.99;100.00